Terminal Aerodrome Forecast
Issued by NWS Mt. Holly, NJ

Home | Current Version | Previous Version | Text Only | Print | Product List | Glossary On
Versions: 1 2 3 4 5 6 7 8 9 10 11 12 13 14 15
082
FTUS41 KPHI 212323
TAFRDG
TAF
KRDG 212323Z 2200/2224 18005KT P6SM BKN200
     FM220600 VRB03KT P6SM SCT025 OVC090
     FM221200 VRB02KT P6SM SCT035 BKN060
     FM221800 22005KT P6SM BKN200=

USA.gov is the U.S. government's official web portal to all federal, state and local government web resources and services.